Time;durP1;ratioP1;P1;durP2;ratioP2;P2;SDS_P1;SDS_P2;PMS_P1;PMS_P2;Temp;Humidity;BMP_temperature;BMP_pressure;BME280_temperature;BME280_humidity;BME280_pressure;Samples;Min_cycle;Max_cycle;Signal;HPM_P1;HPM_P2
2022/05/31 00:02:24;;;;;;;2.45;1.50;;;9.20;99.90;;;;;;5046286;28;20055;-71
2022/05/31 00:04:51;;;;;;;3.03;1.70;;;9.20;99.90;;;;;;5044496;28;20068;-71
2022/05/31 00:07:17;;;;;;;2.13;1.70;;;9.20;99.90;;;;;;5065046;28;20060;-71
2022/05/31 00:09:44;;;;;;;5.63;2.05;;;9.20;99.90;;;;;;5034678;28;20438;-71
2022/05/31 00:12:10;;;;;;;4.28;1.85;;;9.10;99.90;;;;;;5048896;28;20141;-71
2022/05/31 00:14:37;;;;;;;3.20;1.90;;;9.10;99.90;;;;;;5041660;28;20507;-71
2022/05/31 00:17:03;;;;;;;2.58;1.90;;;9.10;99.90;;;;;;5047932;28;20037;-71
2022/05/31 00:19:29;;;;;;;3.17;2.10;;;9.10;99.90;;;;;;5046804;28;20041;-71
2022/05/31 00:22:15;;;;;;;4.78;2.00;;;9.00;99.90;;;;;;5065134;28;20843;-71
2022/05/31 00:24:41;;;;;;;2.45;1.58;;;9.00;99.90;;;;;;5046795;28;20048;-71
2022/05/31 00:27:12;;;;;;;3.83;1.95;;;8.90;99.90;;;;;;5049175;28;20548;-71
2022/05/31 00:29:38;;;;;;;2.38;2.08;;;8.80;99.90;;;;;;5042958;28;20037;-71
2022/05/31 00:32:08;;;;;;;2.53;1.80;;;8.80;99.90;;;;;;5026987;28;20187;-71
2022/05/31 00:34:36;;;;;;;3.97;1.95;;;8.70;99.90;;;;;;5028578;28;20468;-71
2022/05/31 00:37:03;;;;;;;2.75;1.70;;;8.70;99.90;;;;;;5043889;28;20036;-72
2022/05/31 00:39:29;;;;;;;4.60;2.20;;;8.70;99.90;;;;;;5042497;28;20040;-71
2022/05/31 00:42:02;;;;;;;2.63;2.20;;;8.70;99.90;;;;;;5064757;28;20037;-71
2022/05/31 00:44:28;;;;;;;4.00;2.30;;;8.60;99.90;;;;;;5064840;28;20059;-71
2022/05/31 00:47:08;;;;;;;3.17;2.30;;;8.60;99.90;;;;;;5044791;28;20036;-71
2022/05/31 00:49:38;;;;;;;3.65;1.90;;;8.60;99.90;;;;;;5050038;28;20670;-71
2022/05/31 00:52:12;;;;;;;5.25;2.55;;;8.60;99.90;;;;;;5028098;28;20056;-71
2022/05/31 00:54:47;;;;;;;2.42;2.13;;;8.60;99.90;;;;;;5043764;28;20642;-71
2022/05/31 00:57:13;;;;;;;4.43;2.25;;;8.50;99.90;;;;;;5054890;28;20041;-71
2022/05/31 00:59:47;;;;;;;2.28;2.08;;;8.50;99.90;;;;;;5046836;28;21367;-71
2022/05/31 01:02:15;;;;;;;3.88;2.55;;;8.50;99.90;;;;;;5046569;28;20047;-71
2022/05/31 01:04:48;;;;;;;5.00;2.30;;;8.40;99.90;;;;;;5043765;28;20036;-71
2022/05/31 01:07:14;;;;;;;3.63;2.20;;;8.40;99.90;;;;;;5044138;28;20749;-71
2022/05/31 01:09:40;;;;;;;2.42;2.08;;;8.40;99.90;;;;;;5047504;28;20230;-71
2022/05/31 01:12:06;;;;;;;2.80;2.40;;;8.40;99.90;;;;;;5046369;28;20060;-71
2022/05/31 01:14:32;;;;;;;2.78;2.40;;;8.40;99.90;;;;;;5045423;28;20444;-71
2022/05/31 01:17:16;;;;;;;4.10;2.72;;;8.40;99.90;;;;;;5047074;28;20084;-71
2022/05/31 01:19:57;;;;;;;3.20;2.90;;;8.30;99.90;;;;;;5043138;28;20079;-71
2022/05/31 01:22:37;;;;;;;3.78;2.20;;;8.30;99.90;;;;;;5039969;28;20048;-71
2022/05/31 01:25:22;;;;;;;4.97;2.50;;;8.30;99.90;;;;;;5046518;28;20407;-71
2022/05/31 01:28:24;;;;;;;3.57;2.13;;;8.30;99.90;;;;;;5046156;28;20041;-71
2022/05/31 01:31:15;;;;;;;3.92;2.70;;;8.30;99.90;;;;;;5044797;28;20045;-71
2022/05/31 01:33:47;;;;;;;3.47;2.63;;;8.40;99.90;;;;;;5046717;28;20118;-71
2022/05/31 01:36:33;;;;;;;3.95;2.75;;;8.30;99.90;;;;;;5042974;28;20040;-71
2022/05/31 01:39:27;;;;;;;3.95;2.40;;;8.30;99.90;;;;;;5041429;28;20033;-71
2022/05/31 01:42:00;;;;;;;3.53;2.78;;;8.40;99.90;;;;;;5031021;28;20489;-71
2022/05/31 01:44:30;;;;;;;3.28;2.40;;;8.30;99.90;;;;;;5053627;28;20061;-71
2022/05/31 01:46:58;;;;;;;2.95;2.70;;;8.30;99.90;;;;;;5042149;28;20057;-72
2022/05/31 01:49:26;;;;;;;2.75;2.30;;;8.40;99.90;;;;;;5046305;28;20045;-71
2022/05/31 01:51:53;;;;;;;2.60;2.20;;;8.40;99.90;;;;;;5045493;28;20045;-71
2022/05/31 01:54:19;;;;;;;3.38;2.50;;;8.40;99.90;;;;;;5041673;28;20043;-71
2022/05/31 01:56:48;;;;;;;2.53;2.33;;;8.40;99.90;;;;;;5046912;28;20132;-71
2022/05/31 01:59:16;;;;;;;3.78;2.72;;;8.40;99.90;;;;;;5047898;28;20036;-71
2022/05/31 02:01:42;;;;;;;3.17;2.75;;;8.40;99.90;;;;;;5031499;28;20127;-71
2022/05/31 02:04:09;;;;;;;4.57;2.80;;;8.40;99.90;;;;;;5040076;28;20140;-71
2022/05/31 02:06:39;;;;;;;5.28;3.10;;;8.50;99.90;;;;;;5040902;28;20667;-71
2022/05/31 02:09:08;;;;;;;3.75;2.70;;;8.40;99.90;;;;;;5031758;28;20075;-71
2022/05/31 02:11:34;;;;;;;3.22;2.55;;;8.50;99.90;;;;;;5038862;28;20040;-71
2022/05/31 02:14:01;;;;;;;3.55;2.85;;;8.40;99.90;;;;;;5042857;28;20048;-72
2022/05/31 02:16:27;;;;;;;3.42;3.00;;;8.50;99.90;;;;;;5043131;28;20037;-72
2022/05/31 02:21:37;;;;;;;2.67;2.47;;;8.60;99.90;;;;;;5063520;28;20071;-71
2022/05/31 02:24:09;;;;;;;2.97;2.67;;;8.50;99.90;;;;;;5044466;28;20067;-71
2022/05/31 02:26:36;;;;;;;4.03;2.65;;;8.60;99.90;;;;;;5044291;28;20041;-71
2022/05/31 02:29:02;;;;;;;4.03;2.55;;;8.60;99.90;;;;;;5064079;28;20435;-71
2022/05/31 02:31:29;;;;;;;3.03;2.70;;;8.60;99.90;;;;;;5046266;28;20510;-71
2022/05/31 02:33:55;;;;;;;3.75;2.58;;;8.60;99.90;;;;;;5045703;28;20059;-71
2022/05/31 02:36:22;;;;;;;5.80;2.72;;;8.60;99.90;;;;;;5040608;28;20032;-71
2022/05/31 02:38:48;;;;;;;4.45;3.17;;;8.60;99.90;;;;;;5051635;28;20037;-71
2022/05/31 02:41:14;;;;;;;4.55;2.88;;;8.60;99.90;;;;;;5053029;28;20456;-71
2022/05/31 02:43:39;;;;;;;3.17;2.75;;;8.60;99.90;;;;;;5044101;28;20055;-71
2022/05/31 02:46:05;;;;;;;3.45;2.55;;;8.70;99.90;;;;;;5044007;28;20140;-71
2022/05/31 02:48:31;;;;;;;2.95;2.63;;;8.70;99.90;;;;;;5046323;28;20047;-71
2022/05/31 02:50:57;;;;;;;4.60;2.53;;;8.70;99.90;;;;;;5050135;28;20060;-71
2022/05/31 02:53:22;;;;;;;3.38;2.97;;;8.70;99.90;;;;;;5044698;28;20072;-71
2022/05/31 02:55:48;;;;;;;3.90;2.65;;;8.70;99.90;;;;;;5064781;28;20412;-71
2022/05/31 02:58:14;;;;;;;3.67;2.83;;;8.70;99.90;;;;;;5039340;28;20044;-71
2022/05/31 03:00:39;;;;;;;6.15;3.30;;;8.70;99.90;;;;;;5045227;28;20124;-71
2022/05/31 03:03:05;;;;;;;3.38;3.00;;;8.70;99.90;;;;;;5059695;28;20681;-71
2022/05/31 03:05:32;;;;;;;4.85;3.13;;;8.80;99.90;;;;;;5046749;28;20131;-71
2022/05/31 03:07:58;;;;;;;3.92;2.97;;;8.70;99.90;;;;;;5045562;28;20036;-71
2022/05/31 03:10:32;;;;;;;8.55;3.20;;;8.70;99.90;;;;;;5069087;28;20400;-71
2022/05/31 03:12:57;;;;;;;3.83;3.10;;;8.80;99.90;;;;;;5048166;28;20033;-71
2022/05/31 03:15:25;;;;;;;5.22;3.13;;;8.80;99.90;;;;;;5047512;28;20033;-71
2022/05/31 03:18:08;;;;;;;4.20;3.10;;;8.80;99.90;;;;;;5064892;28;20040;-71
2022/05/31 03:20:39;;;;;;;3.25;2.88;;;8.80;99.90;;;;;;5047602;28;20204;-71
2022/05/31 03:23:14;;;;;;;5.07;3.58;;;8.80;99.90;;;;;;5045963;28;20664;-71
2022/05/31 03:25:42;;;;;;;4.18;2.80;;;8.80;99.90;;;;;;5052219;28;20567;-71
2022/05/31 03:28:09;;;;;;;5.82;3.00;;;8.80;99.90;;;;;;5061447;28;20049;-71
2022/05/31 03:30:36;;;;;;;5.75;3.42;;;8.80;99.90;;;;;;5049362;28;20048;-71
2022/05/31 03:33:04;;;;;;;4.28;3.00;;;8.80;99.90;;;;;;5027109;28;20049;-71
2022/05/31 03:35:30;;;;;;;3.67;3.35;;;8.90;99.90;;;;;;5046041;28;20079;-71
2022/05/31 03:37:56;;;;;;;4.85;3.42;;;8.90;99.90;;;;;;5044057;28;20037;-71
2022/05/31 03:43:06;;;;;;;4.27;3.40;;;8.90;99.90;;;;;;5042685;28;20103;-71
2022/05/31 03:45:33;;;;;;;6.15;3.55;;;9.00;99.90;;;;;;5034766;28;20113;-71
2022/05/31 03:47:59;;;;;;;5.85;3.50;;;9.00;99.90;;;;;;5040913;28;20070;-71
2022/05/31 03:50:24;;;;;;;4.45;3.63;;;9.00;99.90;;;;;;5046538;28;20127;-71
2022/05/31 03:52:50;;;;;;;3.45;3.13;;;9.00;99.90;;;;;;5042607;28;20051;-71
2022/05/31 03:55:16;;;;;;;4.57;3.70;;;9.00;99.90;;;;;;5050552;28;20052;-71
2022/05/31 03:57:41;;;;;;;3.75;3.45;;;9.00;99.90;;;;;;5047670;28;20500;-71
2022/05/31 04:00:10;;;;;;;3.97;3.25;;;9.10;99.90;;;;;;5044759;28;20041;-71
2022/05/31 04:02:35;;;;;;;4.40;3.35;;;9.10;99.90;;;;;;5047660;28;20033;-71
2022/05/31 04:05:01;;;;;;;5.43;3.80;;;9.20;99.90;;;;;;5026559;28;20093;-71
2022/05/31 04:07:26;;;;;;;4.45;3.85;;;9.20;99.90;;;;;;5040919;28;20043;-71
2022/05/31 04:09:53;;;;;;;4.85;4.18;;;9.20;99.90;;;;;;5039364;28;20048;-71
2022/05/31 04:12:18;;;;;;;3.88;3.47;;;9.20;99.90;;;;;;5042759;28;20056;-71
2022/05/31 04:14:44;;;;;;;3.85;3.47;;;9.20;99.90;;;;;;5040433;28;20424;-71
2022/05/31 04:17:09;;;;;;;7.03;4.40;;;9.30;99.90;;;;;;5042754;28;20528;-72
2022/05/31 04:19:35;;;;;;;7.03;3.88;;;9.30;99.90;;;;;;5046788;28;20117;-72
2022/05/31 04:22:01;;;;;;;5.10;3.70;;;9.30;99.90;;;;;;5045713;28;20057;-71
2022/05/31 04:24:27;;;;;;;4.28;3.45;;;9.30;99.90;;;;;;5062060;28;20040;-71
2022/05/31 04:26:53;;;;;;;5.60;3.60;;;9.30;99.90;;;;;;5045341;28;20036;-71
2022/05/31 04:29:19;;;;;;;6.55;3.75;;;9.40;99.90;;;;;;5042203;28;20497;-70
2022/05/31 04:31:45;;;;;;;4.30;3.90;;;9.30;99.90;;;;;;5050312;28;20174;-71
2022/05/31 04:34:11;;;;;;;4.22;3.83;;;9.40;99.90;;;;;;5045702;28;20044;-71
2022/05/31 04:36:37;;;;;;;3.85;3.45;;;9.40;99.90;;;;;;5045872;28;20044;-71
2022/05/31 04:39:04;;;;;;;4.10;3.70;;;9.50;99.90;;;;;;5041931;28;20051;-71
2022/05/31 04:41:29;;;;;;;4.90;3.80;;;9.50;99.90;;;;;;5047067;28;20036;-71
2022/05/31 04:43:57;;;;;;;6.32;4.32;;;9.50;99.90;;;;;;5046391;28;20499;-71
2022/05/31 04:46:26;;;;;;;6.18;4.15;;;9.50;99.90;;;;;;5032927;28;20489;-71
2022/05/31 04:48:53;;;;;;;4.32;3.92;;;9.60;99.90;;;;;;5058596;28;20124;-71
2022/05/31 04:51:20;;;;;;;3.92;3.63;;;9.60;99.90;;;;;;5043321;28;20435;-71
2022/05/31 04:53:45;;;;;;;5.35;3.90;;;9.60;99.90;;;;;;5041502;28;20056;-71
2022/05/31 04:56:14;;;;;;;4.20;3.80;;;9.70;99.90;;;;;;5044305;28;20052;-71
2022/05/31 04:58:40;;;;;;;4.88;3.80;;;9.70;99.90;;;;;;5042791;28;20063;-71
2022/05/31 05:01:06;;;;;;;4.10;3.63;;;9.80;99.90;;;;;;5043307;28;20048;-71
2022/05/31 05:03:36;;;;;;;5.38;3.95;;;9.80;99.90;;;;;;5042432;28;20115;-71
2022/05/31 05:06:04;;;;;;;3.70;3.30;;;9.90;99.90;;;;;;5048468;28;20483;-71
2022/05/31 05:08:31;;;;;;;4.95;3.90;;;9.90;99.90;;;;;;5043049;28;20119;-71
2022/05/31 05:11:00;;;;;;;5.53;3.80;;;10.00;99.90;;;;;;5028928;28;20056;-71
2022/05/31 05:13:26;;;;;;;4.90;3.75;;;10.00;99.90;;;;;;5044321;28;20135;-71
2022/05/31 05:15:53;;;;;;;4.70;3.67;;;10.10;99.90;;;;;;5061330;28;20581;-71
2022/05/31 05:18:19;;;;;;;4.05;3.60;;;10.20;99.90;;;;;;5041779;28;20037;-71
2022/05/31 05:20:45;;;;;;;5.75;4.00;;;10.20;99.90;;;;;;5048939;28;20056;-71
2022/05/31 05:23:11;;;;;;;4.38;3.97;;;10.20;99.90;;;;;;5025208;28;20104;-72
2022/05/31 05:25:37;;;;;;;4.57;3.40;;;10.30;99.90;;;;;;5046422;28;20062;-71
2022/05/31 05:30:38;;;;;;;5.30;3.97;;;10.30;99.90;;;;;;5046705;28;20045;-71
2022/05/31 05:30:50;;;;;;;3.90;3.42;;;10.30;99.90;;;;;;5042487;28;20043;-71
2022/05/31 05:33:16;;;;;;;3.80;3.40;;;10.30;99.90;;;;;;5062796;28;20040;-71
2022/05/31 05:35:42;;;;;;;5.85;3.88;;;10.30;99.90;;;;;;5042765;28;20047;-71
2022/05/31 05:38:08;;;;;;;4.93;4.00;;;10.40;99.90;;;;;;5045999;28;20036;-72
2022/05/31 05:40:37;;;;;;;7.05;3.70;;;10.50;99.90;;;;;;5041450;28;20037;-71
2022/05/31 05:43:06;;;;;;;3.92;3.47;;;10.60;99.90;;;;;;5046373;28;20068;-71
2022/05/31 05:45:32;;;;;;;4.38;3.83;;;10.60;99.90;;;;;;5038811;28;20420;-71
2022/05/31 05:47:57;;;;;;;5.28;3.70;;;10.70;99.90;;;;;;5041576;28;20063;-72
2022/05/31 05:50:23;;;;;;;4.95;3.47;;;10.70;99.90;;;;;;5042043;28;20052;-72
2022/05/31 05:52:54;;;;;;;9.23;8.20;;;10.80;99.90;;;;;;5027936;28;20102;-72
2022/05/31 05:55:19;;;;;;;5.35;4.15;;;10.80;99.90;;;;;;5041676;28;20126;-72
2022/05/31 05:57:45;;;;;;;5.20;3.53;;;10.80;99.90;;;;;;5045969;28;20436;-72
2022/05/31 06:00:11;;;;;;;6.15;3.55;;;10.90;99.90;;;;;;5047855;28;20048;-72
2022/05/31 06:02:41;;;;;;;4.78;3.70;;;10.90;99.90;;;;;;5028051;28;20782;-72
2022/05/31 06:05:14;;;;;;;4.88;3.53;;;11.00;99.90;;;;;;5048115;28;20045;-71
2022/05/31 06:07:47;;;;;;;4.60;3.47;;;10.90;99.90;;;;;;5040770;28;20151;-71
2022/05/31 06:10:25;;;;;;;4.63;3.60;;;11.00;99.90;;;;;;5036095;28;20033;-71
2022/05/31 06:12:56;;;;;;;4.47;3.20;;;11.00;99.90;;;;;;5055669;28;20123;-71
2022/05/31 06:15:26;;;;;;;4.28;3.20;;;11.00;99.90;;;;;;5032579;28;20040;-71
2022/05/31 06:17:55;;;;;;;5.43;3.60;;;11.00;99.90;;;;;;5045969;28;20055;-71
2022/05/31 06:20:22;;;;;;;4.40;3.25;;;11.10;99.90;;;;;;5043828;28;20336;-71
2022/05/31 06:22:48;;;;;;;5.97;3.53;;;11.10;99.90;;;;;;5040804;28;20481;-71
2022/05/31 06:25:17;;;;;;;8.98;4.05;;;11.20;99.90;;;;;;5043536;28;20044;-71
2022/05/31 06:27:42;;;;;;;7.38;3.55;;;11.20;99.90;;;;;;5043094;28;20481;-71
2022/05/31 06:30:08;;;;;;;5.65;3.63;;;11.30;99.90;;;;;;5030031;28;20074;-71
2022/05/31 06:32:34;;;;;;;7.43;3.70;;;11.40;99.90;;;;;;5041006;28;20045;-71
2022/05/31 06:35:01;;;;;;;4.53;3.63;;;11.50;99.90;;;;;;5043371;28;20041;-71
2022/05/31 06:37:29;;;;;;;4.30;3.63;;;11.60;99.90;;;;;;5044257;28;20048;-71
2022/05/31 06:39:55;;;;;;;4.25;3.25;;;11.70;99.90;;;;;;5047838;28;20045;-71
2022/05/31 06:42:20;;;;;;;6.47;3.67;;;11.80;99.90;;;;;;5047227;28;20136;-71
2022/05/31 06:44:46;;;;;;;5.15;3.90;;;12.00;99.90;;;;;;5048468;28;20056;-71
2022/05/31 06:47:13;;;;;;;6.70;3.47;;;12.10;99.90;;;;;;5047585;28;20045;-72
2022/05/31 06:49:39;;;;;;;4.72;3.45;;;12.20;99.90;;;;;;5044269;28;20040;-71
2022/05/31 06:57:44;;;;;;;5.05;2.85;;;12.60;99.90;;;;;;5045400;28;20052;-71
2022/05/31 07:00:13;;;;;;;3.85;3.25;;;12.60;99.90;;;;;;5043490;28;20043;-71
2022/05/31 07:02:39;;;;;;;7.88;3.17;;;12.80;99.90;;;;;;5048369;28;20043;-71
2022/05/31 07:05:05;;;;;;;5.13;3.08;;;13.10;99.90;;;;;;5043755;28;20404;-72
2022/05/31 07:07:31;;;;;;;5.50;2.47;;;13.40;99.90;;;;;;5044476;28;20150;-72
2022/05/31 07:09:57;;;;;;;4.20;2.70;;;13.70;99.90;;;;;;5042779;28;20049;-72
2022/05/31 07:12:23;;;;;;;4.25;2.75;;;13.70;99.90;;;;;;5048754;28;20148;-72
2022/05/31 07:14:49;;;;;;;3.92;2.63;;;13.80;99.90;;;;;;5043393;28;20041;-72
2022/05/31 07:17:15;;;;;;;4.40;2.78;;;13.90;99.90;;;;;;5051768;28;20040;-72
2022/05/31 07:19:42;;;;;;;4.55;3.00;;;14.00;99.90;;;;;;5042949;28;20033;-72
2022/05/31 07:22:07;;;;;;;5.65;3.10;;;14.20;99.90;;;;;;5045444;28;20048;-72
2022/05/31 07:24:33;;;;;;;4.20;2.53;;;14.40;99.90;;;;;;5040482;28;20053;-73
2022/05/31 07:26:58;;;;;;;3.55;2.60;;;14.50;99.90;;;;;;5029180;28;20042;-72
2022/05/31 07:29:25;;;;;;;5.03;2.40;;;14.70;99.90;;;;;;5047825;28;20106;-73
2022/05/31 07:31:51;;;;;;;3.53;2.00;;;14.80;99.90;;;;;;5048562;28;20068;-73
2022/05/31 07:34:17;;;;;;;3.70;2.25;;;15.00;99.90;;;;;;5031513;28;20161;-73
2022/05/31 07:36:43;;;;;;;3.78;2.30;;;15.10;99.90;;;;;;5047191;28;20128;-72
2022/05/31 07:39:12;;;;;;;3.05;2.03;;;15.30;99.90;;;;;;5049069;28;20080;-73
2022/05/31 07:41:37;;;;;;;4.47;2.13;;;15.50;99.90;;;;;;5025181;28;20124;-72
2022/05/31 07:44:03;;;;;;;5.78;2.22;;;15.60;99.90;;;;;;5047580;28;20148;-72
2022/05/31 07:46:29;;;;;;;3.83;1.92;;;15.80;99.90;;;;;;5036735;28;20033;-74
2022/05/31 07:48:59;;;;;;;3.75;2.22;;;15.90;99.90;;;;;;5051685;28;20044;-73
2022/05/31 07:51:26;;;;;;;3.47;1.98;;;16.00;99.90;;;;;;5032780;28;20037;-73
2022/05/31 07:53:52;;;;;;;5.90;2.70;;;16.10;99.90;;;;;;5042805;28;20037;-73
2022/05/31 07:56:18;;;;;;;4.30;2.10;;;16.20;99.90;;;;;;5044684;28;20043;-73
2022/05/31 07:58:44;;;;;;;3.58;2.33;;;16.30;98.80;;;;;;5036202;28;20048;-74
2022/05/31 08:01:15;;;;;;;2.72;1.90;;;16.50;98.30;;;;;;5047858;28;20046;-74
2022/05/31 08:03:42;;;;;;;4.95;2.50;;;16.60;97.60;;;;;;5043828;28;20116;-73
2022/05/31 08:06:12;;;;;;;4.00;2.22;;;16.60;96.90;;;;;;5038902;28;20033;-75
2022/05/31 08:08:38;;;;;;;4.47;2.40;;;16.90;95.90;;;;;;5063402;28;20057;-74
2022/05/31 08:11:26;;;;;;;4.05;2.13;;;17.20;95.40;;;;;;5049990;28;20043;-73
2022/05/31 08:13:53;;;;;;;4.32;2.08;;;17.70;93.70;;;;;;5032034;28;20148;-73
2022/05/31 08:16:24;;;;;;;3.78;2.25;;;18.00;93.20;;;;;;5025196;28;20057;-74
2022/05/31 08:18:50;;;;;;;3.85;2.22;;;18.30;92.10;;;;;;5029658;28;20057;-74
2022/05/31 08:21:19;;;;;;;5.30;2.40;;;18.80;91.30;;;;;;5052583;28;20044;-75
2022/05/31 08:23:45;;;;;;;4.18;2.13;;;19.20;90.20;;;;;;5045669;28;20037;-77
2022/05/31 08:26:11;;;;;;;7.25;2.25;;;19.50;86.50;;;;;;5062060;28;20396;-75
2022/05/31 08:28:37;;;;;;;6.60;3.85;;;19.70;83.60;;;;;;5035102;28;20102;-76
2022/05/31 08:31:12;;;;;;;5.65;2.85;;;20.00;77.70;;;;;;5043331;28;20075;-75
2022/05/31 08:33:39;;;;;;;6.18;3.40;;;20.20;74.70;;;;;;5042900;28;20243;-76
2022/05/31 08:36:05;;;;;;;7.28;3.78;;;20.40;72.60;;;;;;5045444;28;20090;-75
2022/05/31 08:38:31;;;;;;;6.70;3.78;;;20.40;70.30;;;;;;5024472;28;20144;-75
2022/05/31 08:41:12;;;;;;;4.78;3.20;;;20.40;71.40;;;;;;5026281;28;20083;-77
2022/05/31 08:43:47;;;;;;;4.32;3.63;;;20.50;62.40;;;;;;5048934;28;20098;-74
2022/05/31 08:46:35;;;;;;;5.95;3.80;;;20.50;64.20;;;;;;5046012;28;20058;-77
2022/05/31 08:49:20;;;;;;;5.15;3.78;;;20.50;63.00;;;;;;5044378;28;20406;-74
2022/05/31 08:52:06;;;;;;;;;;;20.30;64.50;;;;;;5041876;28;20500;-75
2022/05/31 08:57:34;;;;;;;5.60;3.30;;;20.30;62.80;;;;;;5040464;28;20052;-74
2022/05/31 09:00:11;;;;;;;4.22;2.85;;;20.40;60.70;;;;;;5021209;28;20162;-76
2022/05/31 09:03:01;;;;;;;5.32;3.13;;;20.10;58.60;;;;;;5040106;28;20496;-75
2022/05/31 09:05:32;;;;;;;5.90;3.40;;;19.70;60.00;;;;;;5031677;28;20110;-74
2022/05/31 09:08:08;;;;;;;6.82;3.53;;;19.70;62.60;;;;;;5045770;28;20045;-75
2022/05/31 09:10:52;;;;;;;5.45;3.50;;;20.00;63.00;;;;;;5047360;28;20074;-75
2022/05/31 09:13:25;;;;;;;5.70;3.40;;;20.10;62.50;;;;;;5048974;28;20040;-74
2022/05/31 09:16:07;;;;;;;5.50;3.50;;;20.00;61.10;;;;;;5046774;28;20040;-75
2022/05/31 09:18:50;;;;;;;5.50;3.40;;;19.80;58.30;;;;;;5043585;28;20412;-75
2022/05/31 09:21:28;;;;;;;6.07;3.58;;;19.70;59.20;;;;;;5045675;28;20036;-74
2022/05/31 09:23:55;;;;;;;8.50;4.50;;;19.30;56.90;;;;;;5040848;28;20041;-74
2022/05/31 09:26:40;;;;;;;7.15;3.78;;;19.10;57.90;;;;;;5030773;28;20041;-74
2022/05/31 09:29:17;;;;;;;7.00;4.10;;;19.00;59.40;;;;;;5050187;28;20173;-74
2022/05/31 09:32:27;;;;;;;6.15;3.92;;;19.00;59.30;;;;;;5047899;28;20032;-74
2022/05/31 09:35:19;;;;;;;6.60;3.95;;;18.80;57.70;;;;;;5050088;28;20051;-74
2022/05/31 09:38:14;;;;;;;5.38;3.55;;;18.60;59.90;;;;;;5046480;28;20155;-74
2022/05/31 09:40:47;;;;;;;5.95;4.25;;;18.40;62.00;;;;;;5028203;28;20036;-73
2022/05/31 09:43:45;;;;;;;6.80;3.85;;;18.20;62.90;;;;;;5039705;28;20037;-74
2022/05/31 09:46:31;;;;;;;5.50;3.38;;;18.00;60.60;;;;;;5032588;28;20060;-73
2022/05/31 09:48:58;;;;;;;4.38;3.28;;;17.60;58.30;;;;;;5050874;28;20103;-73
2022/05/31 09:51:37;;;;;;;4.90;2.70;;;17.40;60.30;;;;;;5043768;28;20419;-74
2022/05/31 09:57:06;;;;;;;;;;;17.30;61.70;;;;;;5044029;28;20051;-73
2022/05/31 09:59:44;;;;;;;7.68;4.97;;;17.30;60.50;;;;;;5047877;28;20007;-73
2022/05/31 10:02:25;;;;;;;5.43;3.83;;;17.30;61.70;;;;;;5045565;28;20342;-73
2022/05/31 10:05:08;;;;;;;5.18;2.60;;;17.50;62.10;;;;;;5041633;28;20063;-73
2022/05/31 10:07:37;;;;;;;4.97;2.92;;;17.80;62.40;;;;;;5043672;28;20126;-73
2022/05/31 10:10:29;;;;;;;7.18;3.72;;;18.00;60.60;;;;;;5036884;28;20064;-72
2022/05/31 10:12:58;;;;;;;6.65;3.17;;;18.30;58.50;;;;;;5034920;28;20124;-73
2022/05/31 10:15:45;;;;;;;5.03;2.95;;;18.40;58.40;;;;;;5040589;28;20131;-73
2022/05/31 10:18:28;;;;;;;4.78;2.78;;;18.60;56.50;;;;;;5047200;28;20116;-73
2022/05/31 10:20:56;;;;;;;7.53;2.67;;;18.80;56.00;;;;;;5028648;28;20385;-73
2022/05/31 10:23:24;;;;;;;6.53;3.17;;;18.90;55.70;;;;;;5044284;28;20110;-73
2022/05/31 10:25:58;;;;;;;5.80;2.83;;;18.90;57.40;;;;;;5044576;28;20051;-73
2022/05/31 10:28:34;;;;;;;6.07;2.83;;;19.00;56.10;;;;;;5043628;28;20060;-73
2022/05/31 10:31:13;;;;;;;5.95;2.83;;;19.00;55.90;;;;;;5041177;28;20045;-73
2022/05/31 10:33:39;;;;;;;7.40;2.78;;;19.10;57.40;;;;;;5045823;28;20044;-73
2022/05/31 10:36:08;;;;;;;4.15;2.95;;;19.10;56.90;;;;;;5038245;28;20049;-74
2022/05/31 10:38:34;;;;;;;5.05;2.72;;;19.20;57.30;;;;;;5039286;28;20037;-73
2022/05/31 10:41:06;;;;;;;6.10;4.13;;;19.30;57.10;;;;;;5040185;28;20047;-73
2022/05/31 10:43:43;;;;;;;4.82;3.05;;;19.30;54.70;;;;;;5043839;28;20033;-73
2022/05/31 10:46:27;;;;;;;8.07;3.13;;;19.30;54.30;;;;;;5043487;28;20056;-73
2022/05/31 10:49:00;;;;;;;4.30;2.50;;;19.40;53.20;;;;;;5045534;28;20045;-74
2022/05/31 10:52:17;;;;;;;6.43;3.15;;;19.30;55.10;;;;;;5029407;28;20507;-73
2022/05/31 10:55:18;;;;;;;4.68;2.80;;;19.40;54.30;;;;;;5010206;28;20053;-74
2022/05/31 10:57:53;;;;;;;8.93;2.80;;;19.30;54.80;;;;;;5036493;28;20055;-73
2022/05/31 11:00:34;;;;;;;4.63;2.80;;;19.00;55.50;;;;;;5040458;28;20040;-73
2022/05/31 11:03:08;;;;;;;3.45;2.28;;;18.90;55.50;;;;;;5044855;28;20119;-73
2022/05/31 11:05:45;;;;;;;5.20;2.50;;;18.80;56.00;;;;;;5030438;28;20055;-73
2022/05/31 11:11:37;;;;;;;4.15;2.58;;;18.60;56.60;;;;;;5045535;28;20054;-73
2022/05/31 11:14:18;;;;;;;4.72;2.78;;;18.50;56.20;;;;;;5047951;28;20054;-73
2022/05/31 11:17:11;;;;;;;5.25;2.33;;;18.40;55.70;;;;;;5043932;28;20051;-73
2022/05/31 11:19:42;;;;;;;3.65;2.60;;;18.30;54.50;;;;;;5041875;28;20124;-73
2022/05/31 11:22:12;;;;;;;4.78;2.30;;;18.20;55.80;;;;;;5038028;28;20049;-73
2022/05/31 11:24:58;;;;;;;5.32;2.63;;;18.10;58.10;;;;;;5044684;28;20052;-73
2022/05/31 11:27:49;;;;;;;6.82;2.70;;;18.00;56.30;;;;;;5044015;28;20052;-72
2022/05/31 11:30:30;;;;;;;7.95;2.63;;;17.90;55.20;;;;;;5031753;28;20136;-73
2022/05/31 11:33:08;;;;;;;5.10;2.33;;;17.80;55.20;;;;;;5047005;28;20050;-73
2022/05/31 11:35:56;;;;;;;5.97;2.40;;;17.70;56.90;;;;;;5051984;28;20144;-73
2022/05/31 11:38:31;;;;;;;4.32;2.17;;;17.70;57.80;;;;;;5043020;28;20178;-73
2022/05/31 11:41:33;;;;;;;7.15;2.55;;;17.70;57.60;;;;;;5050522;28;20040;-73
2022/05/31 11:44:21;;;;;;;3.95;2.13;;;17.70;58.00;;;;;;5040175;28;20032;-73
2022/05/31 11:47:34;;;;;;;6.65;2.83;;;17.80;56.30;;;;;;5041708;28;20057;-73
2022/05/31 11:50:22;;;;;;;8.07;3.08;;;17.90;54.20;;;;;;5045546;28;20047;-72
2022/05/31 11:53:25;;;;;;;4.60;3.05;;;17.90;56.60;;;;;;5061306;28;20084;-72
2022/05/31 11:55:58;;;;;;;4.57;2.50;;;18.00;56.40;;;;;;5047413;28;20067;-72
2022/05/31 11:58:50;;;;;;;4.75;2.75;;;18.00;56.00;;;;;;5045956;28;20049;-72
2022/05/31 12:01:32;;;;;;;3.88;2.53;;;18.00;55.30;;;;;;5047139;28;20033;-72
2022/05/31 12:04:17;;;;;;;5.30;2.70;;;18.10;56.10;;;;;;5045982;28;20098;-72
2022/05/31 12:07:04;;;;;;;4.57;3.38;;;18.00;56.70;;;;;;5029502;28;20369;-72
2022/05/31 12:09:53;;;;;;;4.40;3.22;;;18.00;57.70;;;;;;5041316;28;20045;-72
2022/05/31 12:12:33;;;;;;;6.40;4.03;;;18.10;57.90;;;;;;5033898;28;20033;-72
2022/05/31 12:15:10;;;;;;;7.15;4.30;;;18.20;59.50;;;;;;5044263;28;20043;-72
2022/05/31 12:17:54;;;;;;;5.47;4.22;;;18.30;60.70;;;;;;5051047;28;20037;-72
2022/05/31 12:20:35;;;;;;;5.03;3.83;;;18.40;60.50;;;;;;5049010;28;20049;-72
2022/05/31 12:23:12;;;;;;;6.95;4.32;;;18.40;61.80;;;;;;5043593;28;20094;-73
2022/05/31 12:25:46;;;;;;;6.10;4.28;;;18.40;60.80;;;;;;5049778;28;20177;-72
2022/05/31 12:28:21;;;;;;;8.27;4.65;;;18.30;60.30;;;;;;5058740;28;20037;-72
2022/05/31 12:31:28;;;;;;;9.15;4.43;;;18.30;60.50;;;;;;5050722;28;20416;-72
2022/05/31 12:34:18;;;;;;;5.65;4.13;;;18.30;61.50;;;;;;4960372;28;20498;-72
2022/05/31 12:37:03;;;;;;;6.80;4.50;;;18.40;62.10;;;;;;4983088;28;20185;-72
2022/05/31 12:39:33;;;;;;;6.32;4.22;;;18.40;61.60;;;;;;5027906;28;20480;-72
2022/05/31 12:42:17;;;;;;;8.48;4.90;;;18.40;61.00;;;;;;5042598;28;20044;-72
2022/05/31 12:44:48;;;;;;;7.05;4.25;;;18.40;61.70;;;;;;5044672;28;20041;-72
2022/05/31 12:47:30;;;;;;;5.85;4.07;;;18.50;60.30;;;;;;5046715;28;20121;-72
2022/05/31 12:49:57;;;;;;;9.25;4.15;;;18.60;61.10;;;;;;5043769;28;20052;-72
2022/05/31 12:55:05;;;;;;;7.10;3.28;;;18.70;59.90;;;;;;5045943;28;20049;-72
2022/05/31 12:58:26;;;;;;;4.85;3.30;;;18.60;59.90;;;;;;5046787;28;20146;-72
2022/05/31 13:00:45;;;;;;;6.57;3.55;;;18.60;59.70;;;;;;5038504;28;20099;-72
2022/05/31 13:03:33;;;;;;;7.38;4.05;;;18.50;59.50;;;;;;5044671;28;20049;-72
2022/05/31 13:06:08;;;;;;;5.38;4.10;;;18.30;60.80;;;;;;5042158;28;20675;-72
2022/05/31 13:08:51;;;;;;;5.80;4.20;;;18.20;61.40;;;;;;5044967;28;20131;-72
2022/05/31 13:20:33;;;;;;;7.35;4.50;;;17.70;62.70;;;;;;5040961;28;20048;-72
2022/05/31 13:23:06;;;;;;;5.30;4.13;;;17.60;63.40;;;;;;5040046;28;20484;-72
2022/05/31 13:25:37;;;;;;;8.95;4.43;;;17.50;62.50;;;;;;5058730;28;20068;-72
2022/05/31 13:28:03;;;;;;;7.93;3.67;;;17.50;62.90;;;;;;5046180;28;20536;-72
2022/05/31 13:30:32;;;;;;;7.53;3.92;;;17.40;62.80;;;;;;5027872;28;20803;-72
2022/05/31 13:33:08;;;;;;;8.70;3.70;;;17.40;63.00;;;;;;5044528;28;20041;-72
2022/05/31 13:35:33;;;;;;;6.93;2.95;;;17.30;62.40;;;;;;5043918;28;20059;-72
2022/05/31 13:38:04;;;;;;;4.90;3.20;;;17.30;62.20;;;;;;5041085;28;20041;-72
2022/05/31 13:40:43;;;;;;;7.63;3.08;;;17.30;61.80;;;;;;5045401;28;20128;-72
2022/05/31 13:43:27;;;;;;;4.75;2.85;;;17.30;61.00;;;;;;5051529;28;20048;-72
2022/05/31 13:45:56;;;;;;;6.03;3.15;;;17.30;62.10;;;;;;5034932;28;20103;-72
2022/05/31 13:48:25;;;;;;;9.57;3.60;;;17.30;61.80;;;;;;5031743;28;20036;-72
2022/05/31 13:51:06;;;;;;;5.60;3.33;;;17.30;60.70;;;;;;5038819;28;20044;-72